createdAt,value
2023-03-12T00:01:44.459Z,3.00
2023-03-12T00:03:47.399Z,2.50
2023-03-12T00:05:49.075Z,3.00
2023-03-12T00:07:51.459Z,3.13
2023-03-12T00:09:53.212Z,2.93
2023-03-12T00:11:55.054Z,2.77
2023-03-12T00:13:59.043Z,2.70
2023-03-12T00:16:14.566Z,2.93
2023-03-12T00:18:16.307Z,3.07
2023-03-12T00:20:18.538Z,2.70
2023-03-12T00:22:22.960Z,3.80
2023-03-12T00:24:24.646Z,3.37
2023-03-12T00:26:26.374Z,3.47
2023-03-12T00:28:28.161Z,3.93
2023-03-12T00:30:30.440Z,3.53
2023-03-12T00:32:35.650Z,3.77
2023-03-12T00:34:37.567Z,3.50
2023-03-12T00:36:41.227Z,3.77
2023-03-12T00:38:43.595Z,4.13
2023-03-12T00:40:45.668Z,3.60
2023-03-12T00:42:47.279Z,3.90
2023-03-12T00:44:49.162Z,4.43
2023-03-12T00:46:50.938Z,4.03
2023-03-12T00:48:52.705Z,3.90
2023-03-12T00:50:54.412Z,4.93
2023-03-12T00:52:56.077Z,4.27
2023-03-12T00:54:58.942Z,4.20
2023-03-12T00:57:00.762Z,4.13
2023-03-12T00:59:02.544Z,3.77
2023-03-12T01:01:05.092Z,3.87
2023-03-12T01:03:06.953Z,4.10
2023-03-12T01:05:11.652Z,3.87
2023-03-12T01:07:13.409Z,3.70
2023-03-12T01:09:15.145Z,4.37
2023-03-12T01:11:20.167Z,3.53
2023-03-12T01:13:21.949Z,3.70
2023-03-12T01:15:24.032Z,3.77
2023-03-12T01:17:25.747Z,3.70
2023-03-12T01:19:27.535Z,3.03
2023-03-12T01:21:30.629Z,3.33
2023-03-12T01:23:32.566Z,3.90
2023-03-12T01:25:34.752Z,3.53
2023-03-12T01:27:36.729Z,3.60
2023-03-12T01:29:38.395Z,3.57
2023-03-12T01:31:40.221Z,3.40
2023-03-12T01:33:42.285Z,3.17
2023-03-12T01:35:44.829Z,3.07
2023-03-12T01:37:46.623Z,3.60
2023-03-12T01:39:48.401Z,3.50
2023-03-12T01:41:50.060Z,3.20
2023-03-12T01:43:51.846Z,3.50
2023-03-12T01:46:31.474Z,3.83
2023-03-12T01:48:41.850Z,3.40
2023-03-12T01:50:43.609Z,3.87
2023-03-12T01:52:45.478Z,3.77
2023-03-12T01:54:56.053Z,3.70
2023-03-12T01:56:58.297Z,4.07
2023-03-12T01:59:05.992Z,3.73
2023-03-12T02:01:08.682Z,3.40
2023-03-12T02:03:10.989Z,4.10
2023-03-12T02:05:27.716Z,3.80
2023-03-12T02:07:29.415Z,3.20
2023-03-12T02:09:38.314Z,3.27
2023-03-12T02:11:40.034Z,3.63
2023-03-12T02:13:41.890Z,3.60
2023-03-12T02:15:43.700Z,4.23
2023-03-12T02:17:46.001Z,3.50
2023-03-12T02:20:08.067Z,3.83
2023-03-12T02:22:12.208Z,3.60
2023-03-12T02:24:32.171Z,3.07
2023-03-12T02:26:36.383Z,3.53
2023-03-12T02:28:44.128Z,3.10
2023-03-12T02:30:50.036Z,3.77
2023-03-12T02:32:52.912Z,3.60
2023-03-12T02:34:56.966Z,3.80
2023-03-12T02:36:58.727Z,3.23
2023-03-12T02:39:00.596Z,4.00
2023-03-12T02:41:16.591Z,3.27
2023-03-12T02:43:20.398Z,3.50
2023-03-12T02:45:22.646Z,2.87
2023-03-12T02:47:24.327Z,3.50
2023-03-12T02:49:29.920Z,3.30
2023-03-12T02:51:32.018Z,3.67
2023-03-12T02:53:33.826Z,3.80
2023-03-12T02:55:36.833Z,3.10
2023-03-12T02:57:38.934Z,3.00
2023-03-12T02:59:40.655Z,3.70
2023-03-12T03:01:43.178Z,2.70
2023-03-12T03:03:45.141Z,2.37
2023-03-12T03:05:46.876Z,2.80
2023-03-12T03:07:48.553Z,2.73
2023-03-12T03:09:50.269Z,2.57
2023-03-12T03:11:52.069Z,3.10
2023-03-12T03:13:55.378Z,2.73
2023-03-12T03:15:58.317Z,3.07
2023-03-12T03:18:03.788Z,2.27
2023-03-12T03:20:09.139Z,4.80
2023-03-12T03:22:10.820Z,2.63
2023-03-12T03:24:12.479Z,2.33
2023-03-12T03:26:15.681Z,2.60
2023-03-12T03:28:17.429Z,3.13
2023-03-12T03:30:21.297Z,2.57
2023-03-12T03:32:23.222Z,2.80
2023-03-12T03:34:24.963Z,2.53
2023-03-12T03:36:26.691Z,2.70
2023-03-12T03:38:30.445Z,2.50
2023-03-12T03:40:32.126Z,3.40
2023-03-12T03:42:33.811Z,2.80
2023-03-12T03:44:35.648Z,2.83
2023-03-12T03:46:37.495Z,2.80
2023-03-12T03:48:40.262Z,2.80
2023-03-12T03:50:42.419Z,3.70
2023-03-12T03:52:44.056Z,2.73
2023-03-12T03:54:45.718Z,2.90
2023-03-12T03:56:47.853Z,2.70
2023-03-12T03:58:49.641Z,3.00
2023-03-12T04:00:51.391Z,3.37
2023-03-12T04:02:53.269Z,2.67
2023-03-12T04:04:57.620Z,3.10
2023-03-12T04:06:59.315Z,2.73
2023-03-12T04:09:00.973Z,2.97
2023-03-12T04:11:11.211Z,3.03
2023-03-12T04:13:12.953Z,2.70
2023-03-12T04:15:14.795Z,3.00
2023-03-12T04:17:16.481Z,3.40
2023-03-12T04:19:18.217Z,2.60
2023-03-12T04:21:20.111Z,3.40
2023-03-12T04:23:21.771Z,2.70
2023-03-12T04:25:23.793Z,2.90
2023-03-12T04:27:25.455Z,2.80
2023-03-12T04:29:27.615Z,3.20
2023-03-12T04:31:29.347Z,2.73
2023-03-12T04:33:34.470Z,2.70
2023-03-12T04:35:36.252Z,2.80
2023-03-12T04:37:38.042Z,2.40
2023-03-12T04:39:40.728Z,3.10
2023-03-12T04:41:42.430Z,2.97
2023-03-12T04:43:44.179Z,3.00
2023-03-12T04:45:45.955Z,3.10
2023-03-12T04:47:47.654Z,2.90
2023-03-12T04:49:49.318Z,3.60
2023-03-12T04:51:51.111Z,2.73
2023-03-12T04:53:52.798Z,3.00
2023-03-12T04:55:54.551Z,2.83
2023-03-12T04:57:56.182Z,2.63
2023-03-12T04:59:57.882Z,3.03
2023-03-12T05:01:59.563Z,3.00
2023-03-12T05:04:01.378Z,2.80
2023-03-12T05:06:03.202Z,2.40
2023-03-12T05:08:05.294Z,3.03
2023-03-12T05:10:07.532Z,2.40
2023-03-12T05:12:09.284Z,2.60
2023-03-12T05:14:12.427Z,2.90
2023-03-12T05:16:15.203Z,2.60
2023-03-12T05:18:17.014Z,2.70
2023-03-12T05:20:19.270Z,2.80
2023-03-12T05:22:20.930Z,2.80
2023-03-12T05:24:22.725Z,2.20
2023-03-12T05:26:28.079Z,2.53
2023-03-12T05:28:29.952Z,2.80
2023-03-12T05:30:31.645Z,3.07
2023-03-12T05:32:33.558Z,2.60
2023-03-12T05:34:35.900Z,3.37
2023-03-12T05:36:37.663Z,3.20
2023-03-12T05:38:39.954Z,2.80
2023-03-12T05:40:41.723Z,2.60
2023-03-12T05:42:43.415Z,2.77
2023-03-12T05:44:45.159Z,2.77
2023-03-12T05:46:46.815Z,2.40
2023-03-12T05:48:48.669Z,2.60
2023-03-12T05:50:50.346Z,2.10
2023-03-12T05:52:52.574Z,2.70
2023-03-12T05:54:54.339Z,2.53
2023-03-12T05:56:56.564Z,3.03
2023-03-12T05:58:58.500Z,2.97
2023-03-12T06:01:00.366Z,2.67
2023-03-12T06:03:02.435Z,2.50
2023-03-12T06:05:04.658Z,2.67
2023-03-12T06:07:06.388Z,2.53
2023-03-12T06:09:08.423Z,2.77
2023-03-12T06:11:11.183Z,3.00
2023-03-12T06:13:12.932Z,2.67
2023-03-12T06:15:14.688Z,2.40
2023-03-12T06:17:16.341Z,2.97
2023-03-12T06:19:18.097Z,2.40
2023-03-12T06:21:25.505Z,2.90
2023-03-12T06:23:27.223Z,2.90
2023-03-12T06:25:28.988Z,3.20
2023-03-12T06:27:30.909Z,2.93
2023-03-12T06:29:32.672Z,2.43
2023-03-12T06:31:37.224Z,2.60
2023-03-12T06:33:40.788Z,2.67
2023-03-12T06:35:42.647Z,3.00
2023-03-12T06:37:44.343Z,2.70
2023-03-12T06:39:46.097Z,2.70
2023-03-12T06:41:47.785Z,2.70
2023-03-12T06:43:49.447Z,2.50
2023-03-12T06:45:51.703Z,2.60
2023-03-12T06:47:53.477Z,2.63
2023-03-12T06:49:55.531Z,2.60
2023-03-12T06:51:57.238Z,2.73
2023-03-12T06:54:02.187Z,2.57
2023-03-12T06:56:04.751Z,3.50
2023-03-12T06:58:06.529Z,3.30
2023-03-12T07:00:08.916Z,3.10
2023-03-12T07:02:12.181Z,3.10
2023-03-12T07:04:14.288Z,2.97
2023-03-12T07:06:18.649Z,3.00
2023-03-12T07:08:20.347Z,3.07
2023-03-12T07:10:22.187Z,3.17
2023-03-12T07:12:23.847Z,3.00
2023-03-12T07:14:25.568Z,3.50
2023-03-12T07:16:27.655Z,3.20
2023-03-12T07:18:29.502Z,4.03
2023-03-12T07:20:31.778Z,3.47
2023-03-12T07:22:33.619Z,3.77
2023-03-12T07:24:35.331Z,3.50
2023-03-12T07:26:37.167Z,4.13
2023-03-12T07:28:38.789Z,3.70
2023-03-12T07:30:41.325Z,4.70
2023-03-12T07:32:43.024Z,4.40
2023-03-12T07:34:45.495Z,4.13
2023-03-12T07:36:47.398Z,4.40
2023-03-12T07:38:49.404Z,4.57
2023-03-12T07:40:57.225Z,5.00
2023-03-12T07:42:59.000Z,4.80
2023-03-12T07:45:00.902Z,4.77
2023-03-12T07:47:16.468Z,5.17
2023-03-12T07:49:24.267Z,4.37
2023-03-12T07:51:25.918Z,4.20
2023-03-12T07:53:27.575Z,4.43
2023-03-12T07:55:29.448Z,4.60
2023-03-12T07:57:32.434Z,4.40
2023-03-12T07:59:34.214Z,4.90
2023-03-12T08:01:36.226Z,4.67
2023-03-12T08:03:38.949Z,5.10
2023-03-12T08:05:41.188Z,5.00
2023-03-12T08:07:43.017Z,5.20
2023-03-12T08:09:45.579Z,5.33
2023-03-12T08:11:48.158Z,5.10
2023-03-12T08:13:49.974Z,5.60
2023-03-12T08:15:53.116Z,5.30
2023-03-12T08:17:54.860Z,5.93
2023-03-12T08:19:56.573Z,5.73
2023-03-12T08:21:58.346Z,5.40
2023-03-12T08:24:00.047Z,5.00
2023-03-12T08:26:01.750Z,6.80
2023-03-12T08:28:04.742Z,5.50
2023-03-12T08:30:07.129Z,6.50
2023-03-12T08:32:10.800Z,6.47
2023-03-12T08:34:13.184Z,6.50
2023-03-12T08:36:14.835Z,6.23
2023-03-12T08:38:17.019Z,8.00
2023-03-12T08:40:18.967Z,7.00
2023-03-12T08:42:20.780Z,7.00
2023-03-12T08:44:26.004Z,7.80
2023-03-12T08:46:27.734Z,8.13
2023-03-12T08:48:45.521Z,6.43
2023-03-12T08:50:47.211Z,7.87
2023-03-12T08:52:49.226Z,8.63
2023-03-12T08:54:50.921Z,7.97
2023-03-12T08:56:53.038Z,8.20
2023-03-12T08:58:55.071Z,9.63
2023-03-12T09:00:57.613Z,8.47
2023-03-12T09:02:59.449Z,7.90
2023-03-12T09:05:01.222Z,8.30
2023-03-12T09:07:03.231Z,8.93
2023-03-12T09:09:05.427Z,9.00
2023-03-12T09:11:09.082Z,8.43
2023-03-12T09:13:10.801Z,7.83
2023-03-12T09:15:12.992Z,8.33
2023-03-12T09:17:14.739Z,9.60
2023-03-12T09:19:16.619Z,9.03
2023-03-12T09:21:18.398Z,8.93
2023-03-12T09:23:20.200Z,8.63
2023-03-12T09:25:23.400Z,9.07
2023-03-12T09:27:25.193Z,8.67
2023-03-12T09:29:26.860Z,8.50
2023-03-12T09:31:28.724Z,7.73
2023-03-12T09:33:30.814Z,7.80
2023-03-12T09:35:32.728Z,8.87
2023-03-12T09:37:35.328Z,7.90
2023-03-12T09:39:37.154Z,7.53
2023-03-12T09:41:41.945Z,7.80
2023-03-12T09:43:50.522Z,7.67
2023-03-12T09:45:54.214Z,7.40
2023-03-12T09:48:00.118Z,8.33
2023-03-12T09:50:27.771Z,6.90
2023-03-12T09:53:09.153Z,7.00
2023-03-12T09:55:18.581Z,7.50
2023-03-12T09:57:24.490Z,7.90
2023-03-12T09:59:26.280Z,7.17
2023-03-12T10:01:45.823Z,6.80
2023-03-12T10:04:18.607Z,7.10
2023-03-12T10:06:35.544Z,6.10
2023-03-12T10:08:56.053Z,5.80
2023-03-12T10:11:23.825Z,5.97
2023-03-12T10:13:42.289Z,5.57
2023-03-12T10:15:57.578Z,5.60
2023-03-12T10:18:34.899Z,5.17
2023-03-12T10:21:07.559Z,4.60
2023-03-12T10:23:44.991Z,5.80
2023-03-12T10:25:53.035Z,5.30
2023-03-12T10:28:01.287Z,4.40
2023-03-12T10:30:16.653Z,5.50
2023-03-12T10:32:27.449Z,5.10
2023-03-12T10:34:40.337Z,5.00
2023-03-12T10:36:42.130Z,5.03
2023-03-12T10:38:43.811Z,4.70
2023-03-12T10:40:45.774Z,4.90
2023-03-12T10:42:48.903Z,4.70
2023-03-12T10:45:01.058Z,5.67
2023-03-12T10:47:38.736Z,4.43
2023-03-12T10:49:40.414Z,4.77
2023-03-12T10:52:05.304Z,4.90
2023-03-12T10:54:22.798Z,5.47
2023-03-12T10:56:24.599Z,4.77
2023-03-12T10:58:31.021Z,4.60
2023-03-12T11:00:34.007Z,5.27
2023-03-12T11:02:43.670Z,5.20
2023-03-12T11:04:51.727Z,4.87
2023-03-12T11:07:11.848Z,5.13
2023-03-12T11:09:19.416Z,5.47
2023-03-12T11:11:32.673Z,5.83
2023-03-12T11:13:42.044Z,5.53
2023-03-12T11:15:44.034Z,6.57
2023-03-12T11:17:46.144Z,5.87
2023-03-12T11:19:47.884Z,5.90
2023-03-12T11:22:02.139Z,6.47
2023-03-12T11:24:14.936Z,6.63
2023-03-12T11:26:22.482Z,6.27
2023-03-12T11:28:29.281Z,6.37
2023-03-12T11:30:39.116Z,6.80
2023-03-12T11:32:49.528Z,6.30
2023-03-12T11:34:52.768Z,6.87
2023-03-12T11:37:15.538Z,7.60
2023-03-12T11:39:41.945Z,7.20
2023-03-12T11:41:52.431Z,7.00
2023-03-12T11:43:59.862Z,5.83
2023-03-12T11:46:19.702Z,5.07
2023-03-12T11:48:48.843Z,5.10
2023-03-12T11:51:26.664Z,5.17
2023-03-12T11:53:58.385Z,3.90
2023-03-12T11:56:24.388Z,2.70
2023-03-12T11:58:50.081Z,3.00
2023-03-12T12:01:20.408Z,3.13
2023-03-12T12:03:40.854Z,1.83
2023-03-12T12:06:00.934Z,2.57
2023-03-12T12:08:20.733Z,2.30
2023-03-12T12:10:41.687Z,1.77
2023-03-12T12:12:43.264Z,2.00
2023-03-12T12:15:03.759Z,1.70
2023-03-12T12:17:33.641Z,2.07
2023-03-12T12:20:09.237Z,2.00
2023-03-12T12:22:35.852Z,2.57
2023-03-12T12:25:00.556Z,1.97
2023-03-12T12:27:24.239Z,2.40
2023-03-12T12:30:00.901Z,1.97
2023-03-12T12:32:05.552Z,1.90
2023-03-12T12:34:35.118Z,1.97
2023-03-12T12:36:37.158Z,1.63
2023-03-12T12:38:44.041Z,1.80
2023-03-12T12:40:55.884Z,1.60
2023-03-12T12:43:04.618Z,2.10
2023-03-12T12:45:13.524Z,1.50
2023-03-12T12:47:22.598Z,1.80
2023-03-12T12:49:51.258Z,1.87
2023-03-12T12:52:05.029Z,1.80
2023-03-12T12:54:21.700Z,1.40
2023-03-12T12:56:49.705Z,2.20
2023-03-12T12:59:11.670Z,2.20
2023-03-12T13:01:15.846Z,2.30
2023-03-12T13:03:20.719Z,1.50
2023-03-12T13:05:35.789Z,1.87
2023-03-12T13:07:37.577Z,1.00
2023-03-12T13:10:07.001Z,1.37
2023-03-12T13:12:29.027Z,1.80
2023-03-12T13:14:38.195Z,1.40
2023-03-12T13:16:44.344Z,1.97
2023-03-12T13:19:14.141Z,1.93
2023-03-12T13:21:28.187Z,1.90
2023-03-12T13:23:44.822Z,1.40
2023-03-12T13:26:06.264Z,1.70
2023-03-12T13:28:30.364Z,1.30
2023-03-12T13:30:34.899Z,1.63
2023-03-12T13:32:36.582Z,1.57
2023-03-12T13:34:46.475Z,1.73
2023-03-12T13:36:51.645Z,1.80
2023-03-12T13:39:01.200Z,1.93
2023-03-12T13:41:05.631Z,1.40
2023-03-12T13:43:12.316Z,2.10
2023-03-12T13:45:28.737Z,1.37
2023-03-12T13:47:37.070Z,1.73
2023-03-12T13:49:44.826Z,1.80
2023-03-12T13:52:11.817Z,1.60
2023-03-12T13:54:18.626Z,1.70
2023-03-12T13:56:29.882Z,1.43
2023-03-12T13:58:32.114Z,1.73
2023-03-12T14:01:02.303Z,1.67
2023-03-12T14:03:16.282Z,1.50
2023-03-12T14:05:20.363Z,1.77
2023-03-12T14:07:54.885Z,1.60
2023-03-12T14:10:32.404Z,2.40
2023-03-12T14:13:08.538Z,1.50
2023-03-12T14:15:21.222Z,1.70
2023-03-12T14:17:28.932Z,1.90
2023-03-12T14:19:33.876Z,1.80
2023-03-12T14:21:40.150Z,2.77
2023-03-12T14:23:52.676Z,1.93
2023-03-12T14:25:59.471Z,2.03
2023-03-12T14:28:03.515Z,1.60
2023-03-12T14:30:08.027Z,1.80
2023-03-12T14:32:20.541Z,1.70
2023-03-12T14:34:29.988Z,2.10
2023-03-12T14:36:47.386Z,1.50
2023-03-12T14:38:49.357Z,2.00
2023-03-12T14:41:02.148Z,1.90
2023-03-12T14:43:29.269Z,2.20
2023-03-12T14:45:30.933Z,2.20
2023-03-12T14:47:43.862Z,2.50
2023-03-12T14:49:47.165Z,2.10
2023-03-12T14:51:49.155Z,2.30
2023-03-12T14:53:51.418Z,2.07
2023-03-12T14:56:25.728Z,2.30
2023-03-12T14:58:27.501Z,2.13
2023-03-12T15:00:29.483Z,2.33
2023-03-12T15:02:31.784Z,2.47
2023-03-12T15:04:35.097Z,2.23
2023-03-12T15:06:53.948Z,2.63
2023-03-12T15:08:57.054Z,1.83
2023-03-12T15:10:59.502Z,1.40
2023-03-12T15:13:02.941Z,1.93
2023-03-12T15:15:10.720Z,1.80
2023-03-12T15:17:18.835Z,2.13
2023-03-12T15:19:26.076Z,1.67
2023-03-12T15:21:27.888Z,1.60
2023-03-12T15:23:32.653Z,1.80
2023-03-12T15:25:35.122Z,1.90
2023-03-12T15:27:37.064Z,1.90
2023-03-12T15:29:41.400Z,2.17
2023-03-12T15:31:48.347Z,1.53
2023-03-12T15:34:06.667Z,1.80
2023-03-12T15:36:17.597Z,1.70
2023-03-12T15:38:20.498Z,1.80
2023-03-12T15:40:30.231Z,1.80
2023-03-12T15:42:40.103Z,1.53
2023-03-12T15:44:50.985Z,1.67
2023-03-12T15:47:05.106Z,1.43
2023-03-12T15:49:21.465Z,1.70
2023-03-12T15:51:32.632Z,1.50
2023-03-12T15:53:35.493Z,2.00
2023-03-12T15:55:37.471Z,2.17
2023-03-12T15:57:45.040Z,1.50
2023-03-12T16:00:06.999Z,1.80
2023-03-12T16:02:12.448Z,1.37
2023-03-12T16:04:14.281Z,1.57
2023-03-12T16:06:18.900Z,1.70
2023-03-12T16:08:48.526Z,1.87
2023-03-12T16:10:50.991Z,1.80
2023-03-12T16:12:59.727Z,1.90
2023-03-12T16:15:01.441Z,2.13
2023-03-12T16:17:03.184Z,1.83
2023-03-12T16:19:12.746Z,1.63
2023-03-12T16:21:14.502Z,1.80
2023-03-12T16:23:16.738Z,1.77
2023-03-12T16:25:19.183Z,2.00
2023-03-12T16:27:31.917Z,1.70
2023-03-12T16:29:36.875Z,1.73
2023-03-12T16:31:38.583Z,2.10
2023-03-12T16:33:40.686Z,1.80
2023-03-12T16:35:42.807Z,2.00
2023-03-12T16:37:44.934Z,2.10
2023-03-12T16:39:48.502Z,2.30
2023-03-12T16:41:50.202Z,2.00
2023-03-12T16:43:53.849Z,2.10
2023-03-12T16:45:56.933Z,1.83
2023-03-12T16:48:01.698Z,2.47
2023-03-12T16:50:03.789Z,2.10
2023-03-12T16:52:17.104Z,2.30
2023-03-12T16:54:18.843Z,2.47
2023-03-12T16:56:26.680Z,1.83
2023-03-12T16:58:30.287Z,2.30
2023-03-12T17:00:34.128Z,2.10
2023-03-12T17:02:36.231Z,1.90
2023-03-12T17:04:37.943Z,2.33
2023-03-12T17:06:40.454Z,2.70
2023-03-12T17:08:43.074Z,2.20
2023-03-12T17:10:44.987Z,2.50
2023-03-12T17:12:48.411Z,2.87
2023-03-12T17:14:51.603Z,2.20
2023-03-12T17:16:53.384Z,2.20
2023-03-12T17:18:55.584Z,2.20
2023-03-12T17:20:58.095Z,2.27
2023-03-12T17:22:59.808Z,2.00
2023-03-12T17:25:01.549Z,2.00
2023-03-12T17:27:03.954Z,2.10
2023-03-12T17:29:06.163Z,2.47
2023-03-12T17:31:08.539Z,2.60
2023-03-12T17:33:15.596Z,2.03
2023-03-12T17:35:18.316Z,2.23
2023-03-12T17:37:20.033Z,2.10
2023-03-12T17:39:21.733Z,2.43
2023-03-12T17:41:26.877Z,1.57
2023-03-12T17:43:29.391Z,2.13
2023-03-12T17:45:31.011Z,2.40
2023-03-12T17:47:33.338Z,2.43
2023-03-12T17:49:34.976Z,2.53
2023-03-12T17:51:36.687Z,2.47
2023-03-12T17:53:41.861Z,2.20
2023-03-12T17:55:43.753Z,2.00
2023-03-12T17:57:45.400Z,2.07
2023-03-12T17:59:47.041Z,2.93
2023-03-12T18:01:48.834Z,2.10
2023-03-12T18:03:51.143Z,2.70
2023-03-12T18:05:52.962Z,2.80
2023-03-12T18:07:55.193Z,3.20
2023-03-12T18:09:56.943Z,2.73
2023-03-12T18:11:58.649Z,2.30
2023-03-12T18:14:00.374Z,3.27
2023-03-12T18:16:02.273Z,2.40
2023-03-12T18:18:04.302Z,2.13
2023-03-12T18:20:09.684Z,2.87
2023-03-12T18:22:14.109Z,2.63
2023-03-12T18:24:15.773Z,2.57
2023-03-12T18:26:17.453Z,2.57
2023-03-12T18:28:19.597Z,2.80
2023-03-12T18:30:21.393Z,2.37
2023-03-12T18:32:23.153Z,2.50
2023-03-12T18:34:24.868Z,1.93
2023-03-12T18:36:26.485Z,2.60
2023-03-12T18:38:28.736Z,2.60
2023-03-12T18:40:32.738Z,2.80
2023-03-12T18:42:34.806Z,2.50
2023-03-12T18:44:36.468Z,2.20
2023-03-12T18:46:38.137Z,2.30
2023-03-12T18:48:41.411Z,2.30
2023-03-12T18:50:44.582Z,2.00
2023-03-12T18:52:46.373Z,2.40
2023-03-12T18:54:48.057Z,1.77
2023-03-12T18:56:49.771Z,2.63
2023-03-12T18:58:51.661Z,2.70
2023-03-12T19:00:54.965Z,2.17
2023-03-12T19:02:57.221Z,3.10
2023-03-12T19:04:58.959Z,2.20
2023-03-12T19:07:00.593Z,2.63
2023-03-12T19:09:02.725Z,2.37
2023-03-12T19:11:06.230Z,2.13
2023-03-12T19:13:07.867Z,1.53
2023-03-12T19:15:10.362Z,2.40
2023-03-12T19:17:12.089Z,2.50
2023-03-12T19:19:13.716Z,1.67
2023-03-12T19:21:15.912Z,2.20
2023-03-12T19:23:17.762Z,2.27
2023-03-12T19:25:20.428Z,2.07
2023-03-12T19:27:22.174Z,2.00
2023-03-12T19:29:23.830Z,2.40
2023-03-12T19:31:25.859Z,2.30
2023-03-12T19:33:28.540Z,2.43
2023-03-12T19:35:30.468Z,2.70
2023-03-12T19:37:32.159Z,2.23
2023-03-12T19:39:33.879Z,2.63
2023-03-12T19:41:36.720Z,2.20
2023-03-12T19:43:38.449Z,2.13
2023-03-12T19:45:40.201Z,2.13
2023-03-12T19:47:43.101Z,2.70
2023-03-12T19:49:45.102Z,2.57
2023-03-12T19:51:46.822Z,3.07
2023-03-12T19:53:48.808Z,1.97
2023-03-12T19:55:51.004Z,3.07
2023-03-12T19:57:53.450Z,2.17
2023-03-12T19:59:55.172Z,2.53
2023-03-12T20:01:57.203Z,2.87
2023-03-12T20:03:58.982Z,2.27
2023-03-12T20:06:00.732Z,2.50
2023-03-12T20:08:02.604Z,2.60
2023-03-12T20:10:05.983Z,2.13
2023-03-12T20:12:07.767Z,2.13
2023-03-12T20:14:09.475Z,2.60
2023-03-12T20:16:13.095Z,2.33
2023-03-12T20:18:15.738Z,2.60
2023-03-12T20:20:17.435Z,2.43
2023-03-12T20:22:19.267Z,2.70
2023-03-12T20:24:21.076Z,2.67
2023-03-12T20:26:23.470Z,2.47
2023-03-12T20:28:25.509Z,1.87
2023-03-12T20:30:27.214Z,2.10
2023-03-12T20:32:28.968Z,2.20
2023-03-12T20:34:30.678Z,2.60
2023-03-12T20:36:32.689Z,2.53
2023-03-12T20:38:34.362Z,2.80
2023-03-12T20:40:36.447Z,3.07
2023-03-12T20:42:39.494Z,2.50
2023-03-12T20:44:41.146Z,1.80
2023-03-12T20:46:42.835Z,2.40
2023-03-12T20:48:44.605Z,2.80
2023-03-12T20:50:48.648Z,2.40
2023-03-12T20:52:50.432Z,2.27
2023-03-12T20:54:52.282Z,2.40
2023-03-12T20:56:53.936Z,2.70
2023-03-12T20:58:55.628Z,2.20
2023-03-12T21:01:00.465Z,2.30
2023-03-12T21:03:02.252Z,2.80
2023-03-12T21:05:04.038Z,2.40
2023-03-12T21:07:05.894Z,2.50
2023-03-12T21:09:07.636Z,2.93
2023-03-12T21:11:10.090Z,2.37
2023-03-12T21:13:11.796Z,2.80
2023-03-12T21:15:13.532Z,2.40
2023-03-12T21:17:15.328Z,2.53
2023-03-12T21:19:17.212Z,2.30
2023-03-12T21:21:18.870Z,2.97
2023-03-12T21:23:20.518Z,2.30
2023-03-12T21:25:22.300Z,3.60
2023-03-12T21:27:24.447Z,2.80
2023-03-12T21:29:26.152Z,2.63
2023-03-12T21:31:27.923Z,2.57
2023-03-12T21:33:29.622Z,2.33
2023-03-12T21:35:31.375Z,2.50
2023-03-12T21:37:33.084Z,2.10
2023-03-12T21:39:35.378Z,2.57
2023-03-12T21:41:37.133Z,2.17
2023-03-12T21:43:38.832Z,2.10
2023-03-12T21:45:41.962Z,2.43
2023-03-12T21:47:43.606Z,2.47
2023-03-12T21:49:46.195Z,2.67
2023-03-12T21:51:47.950Z,2.67
2023-03-12T21:53:54.470Z,2.70
2023-03-12T21:55:58.538Z,2.70
2023-03-12T21:58:00.170Z,3.00
2023-03-12T22:00:01.875Z,2.37
2023-03-12T22:02:03.958Z,2.63
2023-03-12T22:04:05.832Z,1.80
2023-03-12T22:06:08.555Z,3.27
2023-03-12T22:08:10.235Z,2.63
2023-03-12T22:10:12.178Z,2.47
2023-03-12T22:12:13.945Z,2.83
2023-03-12T22:14:15.626Z,2.83
2023-03-12T22:16:17.580Z,2.63
2023-03-12T22:18:19.582Z,2.30
2023-03-12T22:20:21.522Z,3.07
2023-03-12T22:22:23.224Z,2.57
2023-03-12T22:24:24.878Z,2.70
2023-03-12T22:26:27.009Z,2.70
2023-03-12T22:28:28.780Z,3.00
2023-03-12T22:30:30.478Z,2.30
2023-03-12T22:32:32.396Z,3.07
2023-03-12T22:34:34.990Z,2.63
2023-03-12T22:36:39.033Z,2.90
2023-03-12T22:38:41.602Z,3.17
2023-03-12T22:40:43.332Z,2.80
2023-03-12T22:42:52.004Z,2.57
2023-03-12T22:44:53.646Z,3.40
2023-03-12T22:46:55.347Z,3.50
2023-03-12T22:48:59.755Z,2.33
2023-03-12T22:51:01.434Z,3.03
2023-03-12T22:53:03.139Z,2.57
2023-03-12T22:55:05.251Z,3.10
2023-03-12T22:57:06.976Z,3.10
2023-03-12T22:59:08.662Z,2.53
2023-03-12T23:01:11.705Z,2.67
2023-03-12T23:03:13.397Z,3.10
2023-03-12T23:05:15.087Z,3.00
2023-03-12T23:07:17.634Z,2.37
2023-03-12T23:09:19.939Z,3.37
2023-03-12T23:11:22.312Z,3.20
2023-03-12T23:13:25.030Z,3.17
2023-03-12T23:15:38.820Z,3.37
2023-03-12T23:17:42.352Z,3.43
2023-03-12T23:19:44.259Z,4.50
2023-03-12T23:21:45.920Z,2.47
2023-03-12T23:23:49.073Z,2.60
2023-03-12T23:25:55.411Z,3.43
2023-03-12T23:27:57.205Z,4.27
2023-03-12T23:29:58.851Z,3.13
2023-03-12T23:32:00.855Z,3.10
2023-03-12T23:34:02.573Z,2.60
2023-03-12T23:36:07.780Z,3.13
2023-03-12T23:38:09.443Z,2.80
2023-03-12T23:40:11.713Z,3.43
2023-03-12T23:42:13.354Z,3.07
2023-03-12T23:44:14.986Z,3.70
2023-03-12T23:46:16.970Z,2.60
2023-03-12T23:48:18.797Z,3.00
2023-03-12T23:50:20.447Z,3.00
2023-03-12T23:52:25.517Z,3.10
2023-03-12T23:54:27.162Z,3.40
2023-03-12T23:56:39.381Z,3.10
2023-03-12T23:58:41.976Z,3.73
